createdAt,value
2018-10-09T12:14:57.984Z,40.5
2018-10-09T12:16:10.197Z,40.4
2018-10-09T12:17:22.427Z,40.6
2018-10-09T12:18:34.674Z,40.4
2018-10-09T12:19:46.948Z,40.5
2018-10-09T12:20:59.090Z,40.7
2018-10-09T12:22:11.305Z,40.8
2018-10-09T12:25:15.775Z,40.9
2018-10-09T12:26:29.912Z,41.2
2018-10-09T12:27:44.160Z,41.4
2018-10-09T12:28:58.257Z,41.5
2018-10-09T12:30:12.428Z,41.6
2018-10-09T12:31:26.609Z,41.5
2018-10-09T12:32:40.801Z,41.6
2018-10-09T12:33:54.985Z,41.7
2018-10-09T12:35:09.095Z,41.2
2018-10-09T12:36:23.366Z,40.9
2018-10-09T12:37:37.535Z,40.9
2018-10-09T12:38:51.721Z,40.4
2018-10-09T12:40:05.898Z,40.2
2018-10-09T12:41:20.079Z,39.9
2018-10-09T12:48:01.997Z,38.8
2018-10-09T12:49:20.323Z,38.6
2018-10-09T12:50:38.573Z,38.8
2018-10-09T12:51:56.822Z,38.9
2018-10-09T12:53:15.104Z,39
2018-10-09T12:54:33.336Z,39.3
2018-10-09T12:55:51.540Z,39.2
2018-10-09T12:57:09.854Z,39.1
2018-10-09T12:58:28.028Z,39.2
2018-10-09T12:59:46.279Z,39.2
2018-10-09T13:01:04.606Z,39.3
2018-10-09T13:02:22.874Z,39.3
2018-10-09T13:10:19.979Z,39
2018-10-09T13:11:38.061Z,39.1
2018-10-09T13:12:56.267Z,38.8
2018-10-09T13:14:14.589Z,38.6
2018-10-09T13:15:32.753Z,38.6
2018-10-09T13:16:50.887Z,38.6
2018-10-09T13:18:09.161Z,39.1
2018-10-09T13:19:27.297Z,39.4
2018-10-09T13:20:45.598Z,39.7
2018-10-09T13:22:03.717Z,40
2018-10-09T13:23:22.020Z,40.2
2018-10-09T13:24:47.874Z,40.3
2018-10-09T13:26:45.053Z,40.5
2018-10-09T13:28:09.918Z,40.7
2018-10-09T13:29:56.040Z,41.6
2018-10-09T13:31:23.456Z,41.6
2018-10-09T13:32:41.651Z,42
2018-10-09T13:33:59.845Z,42.5
2018-10-09T13:35:17.965Z,42.9
2018-10-09T13:36:36.151Z,43.4
2018-10-09T13:37:54.416Z,43.9
2018-10-09T13:39:12.621Z,44.5
2018-10-09T13:40:30.815Z,44.5
2018-10-09T13:41:48.981Z,44.6
2018-10-09T13:43:07.145Z,44.9
2018-10-09T13:44:25.411Z,45
2018-10-09T13:45:43.623Z,45.3
2018-10-09T13:47:01.826Z,45.6
2018-10-09T13:48:20.112Z,45.7
2018-10-09T13:49:38.220Z,45.7
2018-10-09T13:50:56.417Z,45.6
2018-10-09T13:52:15.150Z,45.3
2018-10-09T13:53:32.806Z,45.5
2018-10-09T13:54:50.916Z,45.5
2018-10-09T13:56:09.201Z,45.7
2018-10-09T13:57:27.373Z,45.8
2018-10-09T13:58:45.521Z,45.9
2018-10-09T14:00:03.776Z,46
2018-10-09T14:01:21.879Z,45.9
2018-10-09T14:02:40.151Z,46
2018-10-09T14:03:58.279Z,46
2018-10-09T14:05:16.552Z,46.2
2018-10-09T14:06:37.621Z,45.2
2018-10-09T14:07:52.941Z,44.8
2018-10-09T14:09:11.136Z,44.8
2018-10-09T14:10:29.336Z,44.8
2018-10-09T14:11:47.456Z,45.1
2018-10-09T14:13:05.626Z,45.4
2018-10-09T14:14:23.894Z,45.7
2018-10-09T14:15:42.089Z,46
2018-10-09T14:17:00.209Z,45.6
2018-10-09T14:18:18.398Z,45.9
2018-10-09T14:19:36.660Z,46.3
